createdAt,value
2023-03-20T00:01:13.469Z,30.07
2023-03-20T00:03:40.587Z,34.00
2023-03-20T00:06:18.740Z,36.03
2023-03-20T00:08:47.341Z,35.97
2023-03-20T00:11:33.155Z,34.07
2023-03-20T00:14:06.375Z,31.90
2023-03-20T00:16:44.813Z,31.67
2023-03-20T00:19:25.972Z,37.27
2023-03-20T00:21:54.281Z,35.37
2023-03-20T00:24:22.456Z,32.67
2023-03-20T00:26:50.896Z,34.23
2023-03-20T00:29:30.899Z,43.93
2023-03-20T00:31:58.997Z,66.03
2023-03-20T00:34:29.520Z,97.73
2023-03-20T00:36:56.610Z,90.03
2023-03-20T00:39:24.325Z,91.40
2023-03-20T00:41:57.303Z,85.40
2023-03-20T00:44:27.980Z,59.87
2023-03-20T00:46:58.388Z,63.77
2023-03-20T00:49:32.492Z,58.67
2023-03-20T00:52:01.310Z,54.93
2023-03-20T00:54:28.878Z,50.83
2023-03-20T00:56:59.693Z,48.60
2023-03-20T00:59:33.548Z,50.33
2023-03-20T01:02:02.635Z,46.90
2023-03-20T01:04:42.264Z,42.80
2023-03-20T01:07:14.951Z,39.97
2023-03-20T01:09:42.391Z,41.60
2023-03-20T01:12:12.515Z,40.57
2023-03-20T01:14:41.744Z,41.13
2023-03-20T01:17:20.417Z,41.83
2023-03-20T01:19:47.861Z,40.03
2023-03-20T01:22:14.951Z,41.03
2023-03-20T01:24:42.037Z,42.73
2023-03-20T01:27:14.992Z,40.03
2023-03-20T01:29:42.212Z,41.17
2023-03-20T01:32:15.772Z,39.90
2023-03-20T01:34:46.129Z,37.33
2023-03-20T01:37:17.930Z,38.60
2023-03-20T01:39:45.301Z,41.13
2023-03-20T01:42:15.924Z,40.93
2023-03-20T01:44:44.085Z,41.50
2023-03-20T01:47:23.716Z,41.60
2023-03-20T01:50:19.746Z,41.80
2023-03-20T01:52:50.671Z,45.50
2023-03-20T01:55:18.105Z,41.60
2023-03-20T01:57:54.607Z,38.67
2023-03-20T02:00:21.882Z,37.60
2023-03-20T02:02:48.952Z,34.50
2023-03-20T02:05:51.437Z,35.47
2023-03-20T02:08:26.888Z,34.63
2023-03-20T02:10:55.830Z,36.13
2023-03-20T02:13:29.310Z,35.27
2023-03-20T02:16:02.404Z,35.97
2023-03-20T02:18:52.046Z,37.93
2023-03-20T02:22:09.068Z,35.87
2023-03-20T02:24:50.699Z,40.07
2023-03-20T02:27:30.294Z,42.37
2023-03-20T02:30:34.268Z,38.30
2023-03-20T02:33:32.194Z,37.27
2023-03-20T02:36:22.256Z,36.40
2023-03-20T02:39:16.184Z,36.47
2023-03-20T02:41:54.594Z,37.80
2023-03-20T02:44:30.282Z,37.87
2023-03-20T02:47:27.208Z,44.13
2023-03-20T02:50:04.200Z,43.93
2023-03-20T02:53:12.227Z,42.90
2023-03-20T02:56:20.194Z,43.90
2023-03-20T02:59:09.336Z,48.87
2023-03-20T03:01:42.276Z,44.10
2023-03-20T03:04:18.230Z,43.63
2023-03-20T03:06:48.852Z,47.97
2023-03-20T03:09:24.251Z,47.77
2023-03-20T03:11:59.005Z,46.50
2023-03-20T03:14:59.831Z,46.50
2023-03-20T03:17:31.148Z,45.40
2023-03-20T03:20:03.115Z,45.47
2023-03-20T03:22:34.432Z,43.17
2023-03-20T03:25:01.751Z,41.97
2023-03-20T03:27:38.998Z,43.47
2023-03-20T03:30:12.180Z,41.53
2023-03-20T03:32:49.401Z,41.20
2023-03-20T03:35:20.642Z,41.43
2023-03-20T03:38:01.723Z,37.87
2023-03-20T03:40:46.036Z,38.60
2023-03-20T03:43:42.729Z,38.73
2023-03-20T03:46:26.704Z,38.13
2023-03-20T03:48:57.831Z,37.70
2023-03-20T03:51:29.009Z,39.70
2023-03-20T03:54:10.734Z,35.00
2023-03-20T03:56:41.904Z,35.17
2023-03-20T03:59:13.847Z,34.90
2023-03-20T04:01:44.406Z,37.37
2023-03-20T04:04:14.988Z,35.27
2023-03-20T04:06:42.361Z,34.50
2023-03-20T04:09:09.421Z,35.73
2023-03-20T04:11:36.694Z,35.23
2023-03-20T04:14:03.742Z,33.27
2023-03-20T04:16:31.403Z,34.73
2023-03-20T04:18:58.464Z,35.83
2023-03-20T04:21:25.795Z,32.83
2023-03-20T04:23:52.555Z,33.87
2023-03-20T04:26:22.069Z,33.67
2023-03-20T04:28:50.182Z,32.73
2023-03-20T04:31:23.197Z,33.97
2023-03-20T04:33:55.906Z,34.70
2023-03-20T04:36:34.488Z,31.23
2023-03-20T04:39:03.094Z,32.90
2023-03-20T04:41:30.260Z,35.47
2023-03-20T04:43:57.878Z,35.77
2023-03-20T04:46:25.294Z,38.27
2023-03-20T04:48:52.360Z,36.63
2023-03-20T04:51:19.889Z,35.80
2023-03-20T04:53:51.236Z,34.30
2023-03-20T04:56:18.485Z,36.17
2023-03-20T04:58:46.456Z,35.37
2023-03-20T05:01:14.515Z,34.53
2023-03-20T05:03:41.954Z,39.23
2023-03-20T05:06:09.454Z,37.03
2023-03-20T05:08:39.946Z,35.00
2023-03-20T05:11:07.808Z,37.83
2023-03-20T05:14:05.112Z,33.80
2023-03-20T05:16:32.578Z,35.67
2023-03-20T05:19:16.387Z,35.33
2023-03-20T05:22:21.888Z,35.13
2023-03-20T05:25:07.079Z,35.60
2023-03-20T05:27:53.096Z,34.80
2023-03-20T05:30:49.162Z,34.17
2023-03-20T05:33:51.778Z,36.23
2023-03-20T05:36:41.389Z,36.40
2023-03-20T05:39:34.451Z,35.20
2023-03-20T05:42:18.449Z,36.33
2023-03-20T05:45:07.091Z,35.47
2023-03-20T05:47:55.447Z,35.43
2023-03-20T05:50:29.938Z,37.23
2023-03-20T05:53:17.121Z,35.80
2023-03-20T05:56:02.971Z,37.23
2023-03-20T05:58:52.011Z,35.43
2023-03-20T06:01:36.163Z,35.33
2023-03-20T06:04:20.938Z,36.73
2023-03-20T06:07:14.434Z,41.40
2023-03-20T06:09:44.125Z,35.37
2023-03-20T06:12:13.704Z,35.57
2023-03-20T06:14:40.874Z,37.47
2023-03-20T06:17:09.058Z,39.13
2023-03-20T06:19:36.784Z,43.10
2023-03-20T06:22:03.957Z,43.20
2023-03-20T06:24:31.119Z,41.83
2023-03-20T06:26:59.203Z,39.03
2023-03-20T06:29:26.862Z,44.33
2023-03-20T06:31:58.880Z,39.43
2023-03-20T06:34:30.224Z,39.80
2023-03-20T06:36:57.376Z,39.77
2023-03-20T06:39:24.247Z,39.93
2023-03-20T06:41:52.621Z,38.77
2023-03-20T06:44:23.185Z,39.23
2023-03-20T06:47:09.610Z,40.00
2023-03-20T06:49:36.677Z,39.50
2023-03-20T06:52:05.845Z,40.17
2023-03-20T06:54:33.646Z,42.20
2023-03-20T06:57:00.692Z,42.43
2023-03-20T06:59:27.703Z,43.53
2023-03-20T07:01:58.706Z,41.77
2023-03-20T07:04:27.670Z,42.53
2023-03-20T07:06:58.470Z,42.53
2023-03-20T07:09:26.686Z,43.80
2023-03-20T07:11:54.486Z,45.23
2023-03-20T07:14:22.711Z,46.63
2023-03-20T07:16:56.386Z,44.17
2023-03-20T07:19:23.807Z,45.53
2023-03-20T07:22:01.858Z,43.83
2023-03-20T07:24:32.752Z,43.27
2023-03-20T07:27:00.546Z,42.33
2023-03-20T07:29:27.428Z,45.00
2023-03-20T07:31:56.058Z,43.90
2023-03-20T07:34:27.354Z,44.77
2023-03-20T07:36:56.345Z,45.07
2023-03-20T07:39:23.506Z,44.80
2023-03-20T07:42:13.755Z,44.53
2023-03-20T07:44:52.649Z,44.97
2023-03-20T07:47:19.793Z,42.93
2023-03-20T07:49:46.848Z,36.90
2023-03-20T07:52:14.028Z,37.53
2023-03-20T07:54:41.239Z,32.78
2023-03-20T07:57:08.354Z,31.17
2023-03-20T07:59:35.434Z,31.50
2023-03-20T08:02:02.536Z,31.03
2023-03-20T08:04:29.307Z,30.40
2023-03-20T08:06:56.616Z,30.33
2023-03-20T08:09:23.626Z,29.85
2023-03-20T08:11:51.181Z,29.70
2023-03-20T08:14:18.009Z,27.75
2023-03-20T08:16:45.323Z,28.03
2023-03-20T08:19:12.395Z,29.60
2023-03-20T08:21:40.235Z,28.23
2023-03-20T08:24:08.638Z,27.97
2023-03-20T08:26:36.183Z,28.70
2023-03-20T08:29:03.121Z,29.93
2023-03-20T08:31:33.086Z,31.67
2023-03-20T08:34:02.368Z,32.67
2023-03-20T08:36:29.582Z,30.87
2023-03-20T08:38:56.367Z,33.50
2023-03-20T08:41:23.452Z,33.73
2023-03-20T08:43:50.519Z,30.43
2023-03-20T08:46:17.629Z,25.90
2023-03-20T08:48:44.508Z,24.02
2023-03-20T08:51:11.921Z,24.92
2023-03-20T08:53:38.908Z,22.48
2023-03-20T08:56:07.139Z,21.45
2023-03-20T08:58:33.897Z,20.55
2023-03-20T09:01:08.513Z,18.83
2023-03-20T09:03:36.785Z,19.15
2023-03-20T09:06:08.885Z,19.45
2023-03-20T09:08:36.068Z,19.73
2023-03-20T09:11:04.959Z,20.92
2023-03-20T09:13:31.758Z,20.63
2023-03-20T09:15:58.869Z,19.52
2023-03-20T09:18:26.113Z,20.60
2023-03-20T09:20:53.222Z,21.15
2023-03-20T09:23:20.384Z,20.45
2023-03-20T09:25:47.549Z,21.55
2023-03-20T09:28:14.487Z,21.73
2023-03-20T09:30:43.507Z,20.92
2023-03-20T09:33:10.721Z,21.33
2023-03-20T09:35:38.431Z,22.52
2023-03-20T09:38:05.172Z,22.05
2023-03-20T09:40:52.493Z,23.08
2023-03-20T09:43:52.077Z,22.88
2023-03-20T09:46:33.310Z,23.85
2023-03-20T09:49:47.618Z,24.15
2023-03-20T09:52:38.489Z,24.48
2023-03-20T09:55:16.591Z,26.13
2023-03-20T09:57:50.055Z,27.27
2023-03-20T10:00:26.466Z,26.00
2023-03-20T10:03:06.343Z,27.37
2023-03-20T10:05:39.003Z,27.03
2023-03-20T10:08:13.895Z,28.60
2023-03-20T10:10:49.369Z,26.93
2023-03-20T10:13:32.959Z,26.80
2023-03-20T10:16:41.029Z,27.40
2023-03-20T10:19:21.549Z,26.02
2023-03-20T10:21:54.033Z,26.20
2023-03-20T10:24:28.603Z,22.43
2023-03-20T10:27:01.281Z,22.88
2023-03-20T10:29:40.487Z,21.08
2023-03-20T10:32:24.751Z,19.52
2023-03-20T10:35:24.095Z,18.58
2023-03-20T10:37:59.984Z,18.73
2023-03-20T10:40:33.152Z,20.20
2023-03-20T10:43:04.358Z,17.00
2023-03-20T10:45:39.195Z,18.25
2023-03-20T10:48:35.666Z,17.48
2023-03-20T10:51:04.366Z,17.50
2023-03-20T10:53:48.811Z,16.30
2023-03-20T10:56:39.249Z,14.57
2023-03-20T10:59:27.235Z,13.45
2023-03-20T11:01:54.611Z,14.18
2023-03-20T11:04:21.750Z,15.02
2023-03-20T11:07:06.486Z,12.70
2023-03-20T11:09:33.397Z,13.30
2023-03-20T11:12:02.901Z,13.80
2023-03-20T11:14:39.236Z,12.27
2023-03-20T11:17:06.911Z,11.02
2023-03-20T11:19:36.271Z,11.45
2023-03-20T11:22:21.726Z,10.57
2023-03-20T11:24:54.785Z,11.82
2023-03-20T11:27:27.235Z,11.77
2023-03-20T11:29:56.559Z,10.82
2023-03-20T11:32:26.231Z,10.88
2023-03-20T11:34:57.389Z,10.52
2023-03-20T11:37:28.956Z,8.65
2023-03-20T11:40:17.508Z,9.85
2023-03-20T11:42:57.526Z,8.35
2023-03-20T11:45:26.332Z,8.55
2023-03-20T11:47:56.889Z,9.25
2023-03-20T11:50:38.402Z,9.35
2023-03-20T11:53:45.755Z,8.35
2023-03-20T11:56:25.613Z,9.77
2023-03-20T11:59:01.829Z,10.40
2023-03-20T12:01:37.239Z,10.93
2023-03-20T12:04:13.871Z,11.60
2023-03-20T12:06:47.668Z,12.40
2023-03-20T12:09:35.653Z,12.93
2023-03-20T12:12:14.126Z,12.77
2023-03-20T12:14:45.375Z,13.63
2023-03-20T12:17:25.244Z,13.90
2023-03-20T12:19:56.181Z,16.08
2023-03-20T12:22:30.577Z,16.00
2023-03-20T12:25:18.490Z,15.00
2023-03-20T12:27:55.726Z,16.00
2023-03-20T12:31:00.798Z,16.52
2023-03-20T12:33:38.409Z,16.70
2023-03-20T12:36:13.025Z,17.05
2023-03-20T12:38:41.333Z,17.52
2023-03-20T12:42:00.968Z,16.52
2023-03-20T12:44:50.928Z,13.82
2023-03-20T12:47:42.822Z,13.10
2023-03-20T12:50:32.262Z,11.45
2023-03-20T12:53:18.056Z,11.95
2023-03-20T12:56:22.200Z,11.77
2023-03-20T12:58:57.953Z,9.95
2023-03-20T13:01:32.268Z,11.45
2023-03-20T13:04:31.913Z,10.48
2023-03-20T13:07:00.347Z,11.40
2023-03-20T13:09:44.949Z,11.20
2023-03-20T13:12:49.785Z,10.32
2023-03-20T13:15:43.008Z,11.07
2023-03-20T13:18:25.267Z,10.13
2023-03-20T13:20:55.939Z,9.85
2023-03-20T13:23:30.854Z,10.30
2023-03-20T13:26:22.099Z,9.98
2023-03-20T13:29:21.532Z,9.75
2023-03-20T13:32:03.516Z,11.60
2023-03-20T13:34:31.669Z,11.43
2023-03-20T13:37:22.418Z,10.38
2023-03-20T13:40:10.727Z,10.50
2023-03-20T13:42:49.644Z,11.38
2023-03-20T13:45:41.356Z,11.20
2023-03-20T13:48:29.708Z,7.13
2023-03-20T13:51:15.325Z,5.60
2023-03-20T13:53:50.210Z,4.45
2023-03-20T13:56:26.788Z,4.97
2023-03-20T13:59:35.289Z,4.70
2023-03-20T14:02:39.333Z,5.95
2023-03-20T14:05:19.199Z,4.90
2023-03-20T14:07:48.125Z,5.25
2023-03-20T14:10:20.885Z,5.38
2023-03-20T14:13:00.812Z,5.53
2023-03-20T14:15:37.114Z,6.03
2023-03-20T14:18:06.762Z,5.60
2023-03-20T14:20:39.632Z,5.45
2023-03-20T14:23:07.701Z,6.28
2023-03-20T14:25:41.949Z,6.00
2023-03-20T14:28:12.242Z,6.00
2023-03-20T14:30:43.770Z,6.05
2023-03-20T14:33:13.556Z,6.22
2023-03-20T14:35:50.708Z,4.80
2023-03-20T14:38:20.465Z,4.45
2023-03-20T14:40:59.479Z,4.35
2023-03-20T14:43:59.082Z,4.43
2023-03-20T14:46:38.671Z,4.63
2023-03-20T14:49:19.480Z,4.10
2023-03-20T14:51:50.789Z,3.70
2023-03-20T14:54:30.847Z,3.88
2023-03-20T14:57:10.577Z,3.80
2023-03-20T14:59:37.556Z,4.03
2023-03-20T15:02:04.826Z,4.10
2023-03-20T15:04:34.400Z,4.40
2023-03-20T15:07:16.983Z,4.85
2023-03-20T15:09:46.924Z,4.97
2023-03-20T15:12:17.720Z,4.53
2023-03-20T15:14:51.140Z,5.63
2023-03-20T15:17:24.149Z,6.28
2023-03-20T15:19:51.193Z,6.68
2023-03-20T15:22:20.352Z,6.63
2023-03-20T15:24:56.094Z,10.43
2023-03-20T15:27:26.179Z,13.50
2023-03-20T15:29:56.094Z,15.10
2023-03-20T15:32:23.953Z,18.57
2023-03-20T15:34:51.262Z,18.80
2023-03-20T15:37:23.478Z,18.93
2023-03-20T15:39:55.539Z,17.95
2023-03-20T15:42:24.989Z,15.83
2023-03-20T15:44:53.885Z,17.17
2023-03-20T15:47:26.442Z,17.53
2023-03-20T15:50:02.746Z,17.17
2023-03-20T15:52:53.919Z,15.40
2023-03-20T15:55:24.148Z,16.50
2023-03-20T15:57:54.019Z,17.23
2023-03-20T16:00:25.375Z,18.40
2023-03-20T16:02:53.500Z,17.90
2023-03-20T16:05:23.462Z,14.80
2023-03-20T16:07:50.461Z,15.40
2023-03-20T16:10:20.911Z,14.73
2023-03-20T16:12:55.256Z,16.37
2023-03-20T16:15:25.663Z,16.67
2023-03-20T16:17:56.214Z,17.57
2023-03-20T16:20:25.526Z,17.37
2023-03-20T16:22:56.661Z,16.70
2023-03-20T16:25:24.169Z,16.13
2023-03-20T16:27:52.747Z,20.63
2023-03-20T16:30:27.011Z,19.93
2023-03-20T16:32:59.636Z,18.70
2023-03-20T16:35:31.000Z,18.47
2023-03-20T16:38:00.542Z,19.10
2023-03-20T16:40:37.095Z,19.87
2023-03-20T16:43:30.264Z,19.77
2023-03-20T16:46:03.876Z,19.40
2023-03-20T16:48:33.818Z,19.30
2023-03-20T16:51:27.180Z,22.40
2023-03-20T16:53:57.456Z,23.90
2023-03-20T16:56:28.010Z,25.83
2023-03-20T16:58:56.885Z,26.73
2023-03-20T17:01:27.363Z,25.43
2023-03-20T17:03:57.207Z,27.03
2023-03-20T17:06:25.543Z,25.33
2023-03-20T17:08:56.056Z,26.43
2023-03-20T17:11:35.372Z,25.20
2023-03-20T17:14:04.352Z,27.73
2023-03-20T17:16:36.693Z,26.67
2023-03-20T17:19:13.967Z,27.93
2023-03-20T17:21:41.260Z,26.80
2023-03-20T17:24:09.336Z,26.27
2023-03-20T17:26:36.468Z,24.50
2023-03-20T17:29:03.958Z,25.07
2023-03-20T17:31:31.774Z,22.40
2023-03-20T17:33:58.944Z,24.37
2023-03-20T17:36:28.363Z,27.07
2023-03-20T17:38:56.993Z,30.90
2023-03-20T17:41:24.789Z,30.57
2023-03-20T17:43:52.088Z,28.63
2023-03-20T17:46:30.336Z,33.73
2023-03-20T17:49:13.297Z,29.53
2023-03-20T17:51:40.713Z,30.67
2023-03-20T17:54:07.959Z,29.67
2023-03-20T17:56:35.311Z,25.67
2023-03-20T17:59:03.437Z,26.03
2023-03-20T18:01:32.559Z,25.70
2023-03-20T18:03:59.861Z,26.23
2023-03-20T18:06:30.587Z,25.60
2023-03-20T18:08:59.736Z,26.77
2023-03-20T18:11:27.096Z,25.70
2023-03-20T18:13:54.231Z,24.13
2023-03-20T18:16:23.995Z,23.67
2023-03-20T18:18:52.556Z,24.37
2023-03-20T18:21:20.080Z,26.67
2023-03-20T18:23:47.411Z,26.93
2023-03-20T18:26:23.613Z,26.67
2023-03-20T18:28:52.716Z,26.50
2023-03-20T18:31:20.543Z,27.47
2023-03-20T18:33:49.376Z,28.47
2023-03-20T18:36:21.562Z,27.83
2023-03-20T18:38:49.239Z,23.90
2023-03-20T18:41:15.985Z,25.33
2023-03-20T18:43:43.431Z,24.70
2023-03-20T18:46:21.247Z,26.10
2023-03-20T18:48:49.907Z,21.53
2023-03-20T18:51:16.890Z,22.33
2023-03-20T18:53:44.538Z,25.40
2023-03-20T18:56:16.593Z,25.37
2023-03-20T18:58:45.312Z,24.23
2023-03-20T19:01:13.071Z,21.23
2023-03-20T19:03:41.510Z,24.43
2023-03-20T19:06:19.224Z,28.17
2023-03-20T19:08:47.524Z,24.33
2023-03-20T19:11:15.505Z,22.93
2023-03-20T19:13:45.527Z,24.30
2023-03-20T19:16:27.515Z,22.07
2023-03-20T19:18:56.480Z,20.23
2023-03-20T19:21:26.222Z,21.87
2023-03-20T19:23:55.447Z,20.43
2023-03-20T19:26:24.632Z,21.50
2023-03-20T19:28:52.935Z,22.67
2023-03-20T19:31:20.346Z,20.10
2023-03-20T19:33:47.467Z,21.20
2023-03-20T19:36:34.745Z,21.23
2023-03-20T19:39:04.455Z,21.47
2023-03-20T19:41:32.446Z,23.43
2023-03-20T19:44:01.319Z,23.87
2023-03-20T19:46:39.793Z,24.90
2023-03-20T19:49:18.055Z,23.30
2023-03-20T19:51:46.073Z,23.77
2023-03-20T19:54:13.168Z,23.77
2023-03-20T19:56:40.507Z,24.70
2023-03-20T19:59:08.364Z,24.97
2023-03-20T20:01:36.304Z,23.10
2023-03-20T20:04:04.085Z,20.27
2023-03-20T20:06:32.916Z,20.40
2023-03-20T20:09:01.322Z,20.40
2023-03-20T20:11:28.734Z,18.67
2023-03-20T20:14:14.589Z,16.70
2023-03-20T20:16:43.117Z,16.20
2023-03-20T20:19:11.782Z,13.17
2023-03-20T20:24:27.084Z,10.07
2023-03-20T20:27:14.578Z,10.10
2023-03-20T20:29:43.074Z,9.60
2023-03-20T20:32:09.935Z,8.93
2023-03-20T20:40:16.947Z,8.43
2023-03-20T20:42:47.489Z,8.60
2023-03-20T20:45:15.417Z,8.27
2023-03-20T20:47:47.530Z,7.33
2023-03-20T20:50:24.554Z,7.60
2023-03-20T20:52:51.666Z,6.53
2023-03-20T20:55:25.099Z,8.23
2023-03-20T20:57:54.003Z,7.63
2023-03-20T21:00:25.915Z,7.83
2023-03-20T21:02:56.221Z,7.80
2023-03-20T21:05:23.319Z,7.10
2023-03-20T21:07:50.264Z,8.00
2023-03-20T21:10:19.677Z,10.00
2023-03-20T21:12:58.567Z,8.70
2023-03-20T21:15:27.333Z,7.90
2023-03-20T21:18:01.259Z,8.50
2023-03-20T21:20:31.052Z,9.70
2023-03-20T21:22:58.429Z,8.30
2023-03-20T21:25:39.274Z,7.87
2023-03-20T21:28:07.406Z,7.97
2023-03-20T21:30:34.502Z,9.30
2023-03-20T21:33:01.635Z,7.47
2023-03-20T21:35:28.997Z,7.13
2023-03-20T21:40:44.241Z,11.37
2023-03-20T21:43:11.688Z,9.40
2023-03-20T21:46:20.913Z,9.40
2023-03-20T21:48:58.787Z,8.80
2023-03-20T22:00:06.783Z,8.27
2023-03-20T22:02:26.501Z,7.77
2023-03-20T22:17:08.821Z,11.63
2023-03-20T22:22:29.876Z,10.93
2023-03-20T22:25:16.651Z,11.07
2023-03-20T22:27:56.524Z,10.60
2023-03-20T22:31:01.753Z,9.03
2023-03-20T22:33:47.006Z,9.17
2023-03-20T22:44:50.524Z,7.90
2023-03-20T22:46:54.222Z,8.27
2023-03-20T22:49:21.078Z,9.80
2023-03-20T22:52:05.102Z,7.37
2023-03-20T22:54:35.266Z,5.30
2023-03-20T22:57:02.480Z,5.20
2023-03-20T22:59:29.238Z,5.43
2023-03-20T23:01:56.444Z,4.90
2023-03-20T23:04:23.310Z,4.53
2023-03-20T23:06:50.537Z,4.37
2023-03-20T23:09:17.329Z,4.37
2023-03-20T23:11:44.423Z,4.40
2023-03-20T23:14:20.474Z,4.13
2023-03-20T23:16:49.877Z,4.57
2023-03-20T23:19:16.774Z,3.77
2023-03-20T23:21:43.800Z,3.80
2023-03-20T23:24:10.624Z,3.33
2023-03-20T23:26:37.678Z,3.90
2023-03-20T23:29:04.568Z,3.07
2023-03-20T23:31:31.654Z,3.60
2023-03-20T23:33:58.604Z,3.40
2023-03-20T23:36:36.415Z,2.97
2023-03-20T23:39:09.004Z,3.30
2023-03-20T23:42:06.236Z,4.07
2023-03-20T23:44:25.864Z,4.17
2023-03-20T23:46:54.601Z,2.77
2023-03-20T23:49:21.408Z,2.80
2023-03-20T23:51:48.460Z,3.43
2023-03-20T23:54:15.443Z,2.90
2023-03-20T23:56:42.674Z,2.90
2023-03-20T23:59:20.698Z,2.70
